createdAt,value
2019-03-11T00:02:16.351Z,71.17
2019-03-11T00:04:49.880Z,72.17
2019-03-11T00:07:24.231Z,72.22
2019-03-11T00:09:57.910Z,72.67
2019-03-11T00:12:34.735Z,73.15
2019-03-11T00:15:09.922Z,76.25
2019-03-11T00:17:43.263Z,72.47
2019-03-11T00:20:16.640Z,76.42
2019-03-11T00:22:49.960Z,74.77
2019-03-11T00:25:24.455Z,73.62
2019-03-11T00:27:57.946Z,75.45
2019-03-11T00:30:31.799Z,75.15
2019-03-11T00:33:05.173Z,76.30
2019-03-11T00:35:39.631Z,62.73
2019-03-11T00:38:13.218Z,71.90
2019-03-11T00:40:47.023Z,71.75
2019-03-11T00:43:21.457Z,58.95
2019-03-11T00:45:55.191Z,55.80
2019-03-11T00:48:30.294Z,63.23
2019-03-11T00:51:03.991Z,60.98
2019-03-11T00:53:43.487Z,63.05
2019-03-11T00:56:15.107Z,58.65
2019-03-11T00:58:48.475Z,51.30
2019-03-11T01:01:22.241Z,52.43
2019-03-11T01:03:55.479Z,48.58
2019-03-11T01:06:29.818Z,49.27
2019-03-11T01:09:03.124Z,51.08
2019-03-11T01:11:37.932Z,54.60
2019-03-11T01:14:11.246Z,54.58
2019-03-11T01:16:44.979Z,44.38
2019-03-11T01:19:19.324Z,45.25
2019-03-11T01:21:52.895Z,45.88
2019-03-11T01:24:26.316Z,42.93
2019-03-11T01:26:59.789Z,41.08
2019-03-11T01:29:33.479Z,40.55
2019-03-11T01:32:07.564Z,40.95
2019-03-11T01:34:40.925Z,40.63
2019-03-11T01:37:14.702Z,41.68
2019-03-11T01:39:48.333Z,39.25
2019-03-11T01:42:22.677Z,39.58
2019-03-11T01:44:56.378Z,41.68
2019-03-11T01:47:30.604Z,38.28
2019-03-11T01:50:04.209Z,39.55
2019-03-11T01:52:38.039Z,40.83
2019-03-11T01:55:13.472Z,42.23
2019-03-11T01:57:47.179Z,42.17
2019-03-11T02:00:21.100Z,43.70
2019-03-11T02:02:54.842Z,42.80
2019-03-11T02:05:28.288Z,42.00
2019-03-11T02:08:01.676Z,42.73
2019-03-11T02:10:35.257Z,41.20
2019-03-11T02:13:13.794Z,42.78
2019-03-11T02:15:48.495Z,42.23
2019-03-11T02:18:21.688Z,31.35
2019-03-11T02:20:55.535Z,31.82
2019-03-11T02:23:28.850Z,31.62
2019-03-11T02:26:02.535Z,31.82
2019-03-11T02:28:35.739Z,28.05
2019-03-11T02:31:09.581Z,31.02
2019-03-11T02:33:43.139Z,30.15
2019-03-11T02:36:16.926Z,28.45
2019-03-11T02:38:50.631Z,30.02
2019-03-11T02:41:24.128Z,31.30
2019-03-11T02:43:57.676Z,34.83
2019-03-11T02:46:33.205Z,33.35
2019-03-11T02:49:07.694Z,34.78
2019-03-11T02:51:41.563Z,35.35
2019-03-11T02:54:14.999Z,37.30
2019-03-11T02:56:49.162Z,35.30
2019-03-11T02:59:22.574Z,36.10
2019-03-11T03:02:08.822Z,35.48
2019-03-11T03:04:43.759Z,34.10
2019-03-11T03:07:17.695Z,33.78
2019-03-11T03:09:51.011Z,37.23
2019-03-11T03:12:24.908Z,37.13
2019-03-11T03:14:58.117Z,37.25
2019-03-11T03:17:31.815Z,37.53
2019-03-11T03:20:06.890Z,37.48
2019-03-11T03:22:40.353Z,39.90
2019-03-11T03:25:14.955Z,42.17
2019-03-11T03:27:48.740Z,41.25
2019-03-11T03:30:22.585Z,41.77
2019-03-11T03:32:56.469Z,37.40
2019-03-11T03:35:29.729Z,39.00
2019-03-11T03:38:04.683Z,44.38
2019-03-11T03:40:47.063Z,46.88
2019-03-11T03:43:21.360Z,45.28
2019-03-11T03:45:58.572Z,46.70
2019-03-11T03:48:35.515Z,46.25
2019-03-11T03:51:11.894Z,48.17
2019-03-11T03:53:46.894Z,50.55
2019-03-11T03:56:20.359Z,48.58
2019-03-11T03:58:54.268Z,46.23
2019-03-11T04:01:28.941Z,48.60
2019-03-11T04:04:03.587Z,43.48
2019-03-11T04:06:36.882Z,43.95
2019-03-11T04:09:17.002Z,48.38
2019-03-11T04:11:53.508Z,46.55
2019-03-11T04:14:27.544Z,45.83
2019-03-11T04:17:00.955Z,44.95
2019-03-11T04:19:35.235Z,45.58
2019-03-11T04:22:17.099Z,41.83
2019-03-11T04:24:54.398Z,42.45
2019-03-11T04:27:40.498Z,41.50
2019-03-11T04:30:19.246Z,42.45
2019-03-11T04:32:53.000Z,42.45
2019-03-11T04:35:26.789Z,40.50
2019-03-11T04:38:00.624Z,43.30
2019-03-11T04:40:37.111Z,44.33
2019-03-11T04:43:12.606Z,44.58
2019-03-11T04:45:46.021Z,42.73
2019-03-11T04:48:19.728Z,48.10
2019-03-11T04:50:53.382Z,46.53
2019-03-11T04:53:26.568Z,45.48
2019-03-11T04:56:00.224Z,40.38
2019-03-11T04:58:34.618Z,48.10
2019-03-11T05:01:08.236Z,46.00
2019-03-11T05:03:46.333Z,41.02
2019-03-11T05:06:20.301Z,42.98
2019-03-11T05:08:54.018Z,20.82
2019-03-11T05:11:27.340Z,50.78
2019-03-11T05:14:00.901Z,41.48
2019-03-11T05:16:34.381Z,52.88
2019-03-11T05:19:08.037Z,53.98
2019-03-11T05:21:41.621Z,22.40
2019-03-11T05:24:14.976Z,13.90
2019-03-11T05:26:48.307Z,41.40
2019-03-11T05:29:21.494Z,49.75
2019-03-11T05:31:57.379Z,22.10
2019-03-11T05:34:30.581Z,44.25
2019-03-11T05:37:06.900Z,44.58
2019-03-11T05:39:40.212Z,52.90
2019-03-11T05:42:14.170Z,49.60
2019-03-11T05:44:48.361Z,57.55
2019-03-11T05:47:23.187Z,57.75
2019-03-11T05:49:57.488Z,55.48
2019-03-11T05:52:32.824Z,62.10
2019-03-11T05:55:07.907Z,59.50
2019-03-11T05:57:42.836Z,57.33
2019-03-11T06:00:22.959Z,68.20
2019-03-11T06:02:56.422Z,68.57
2019-03-11T06:05:31.520Z,64.95
2019-03-11T06:08:05.055Z,60.45
2019-03-11T06:10:39.980Z,69.03
2019-03-11T06:13:13.655Z,64.90
2019-03-11T06:15:47.707Z,47.08
2019-03-11T06:18:26.970Z,63.50
2019-03-11T06:21:17.331Z,58.20
2019-03-11T06:23:51.037Z,30.27
2019-03-11T06:26:28.386Z,30.82
2019-03-11T06:29:07.045Z,62.05
2019-03-11T06:31:41.608Z,54.27
2019-03-11T06:34:16.381Z,43.33
2019-03-11T06:36:50.895Z,30.97
2019-03-11T06:39:24.644Z,51.05
2019-03-11T06:41:58.631Z,71.97
2019-03-11T06:44:31.878Z,56.95
2019-03-11T06:47:05.467Z,70.12
2019-03-11T06:49:40.439Z,72.67
2019-03-11T06:52:13.653Z,58.92
2019-03-11T06:54:46.883Z,61.50
2019-03-11T06:57:20.583Z,65.80
2019-03-11T06:59:55.180Z,72.60
2019-03-11T07:02:30.002Z,41.35
2019-03-11T07:05:03.275Z,75.28
2019-03-11T07:07:36.908Z,74.42
2019-03-11T07:10:12.796Z,74.55
2019-03-11T07:12:47.351Z,73.42
2019-03-11T07:15:21.608Z,72.10
2019-03-11T07:18:09.790Z,78.17
2019-03-11T07:20:46.232Z,75.17
2019-03-11T07:23:19.991Z,71.05
2019-03-11T07:26:01.289Z,68.97
2019-03-11T07:28:34.937Z,75.83
2019-03-11T07:31:08.461Z,73.75
2019-03-11T07:33:41.872Z,10.38
2019-03-11T07:36:15.118Z,62.25
2019-03-11T07:38:49.199Z,77.95
2019-03-11T07:41:22.419Z,72.35
2019-03-11T07:43:55.767Z,47.05
2019-03-11T07:46:29.275Z,63.78
2019-03-11T07:49:02.619Z,80.60
2019-03-11T07:51:36.023Z,76.12
2019-03-11T07:54:09.695Z,77.87
2019-03-11T07:56:43.166Z,63.25
2019-03-11T07:59:17.858Z,74.12
2019-03-11T08:01:51.402Z,37.58
2019-03-11T08:04:24.802Z,67.70
2019-03-11T08:06:58.484Z,74.05
2019-03-11T08:09:37.746Z,85.17
2019-03-11T08:12:07.528Z,96.08
2019-03-11T08:14:41.064Z,88.75
2019-03-11T08:17:14.468Z,93.72
2019-03-11T08:19:47.989Z,95.28
2019-03-11T08:22:21.282Z,86.80
2019-03-11T08:24:55.030Z,84.50
2019-03-11T08:27:28.795Z,91.57
2019-03-11T08:30:02.560Z,87.70
2019-03-11T08:32:40.963Z,88.80
2019-03-11T08:35:14.880Z,88.82
2019-03-11T08:37:48.787Z,19.20
2019-03-11T08:40:22.938Z,63.45
2019-03-11T08:42:56.824Z,31.70
2019-03-11T08:45:30.163Z,68.33
2019-03-11T08:48:04.439Z,77.10
2019-03-11T08:50:37.852Z,82.88
2019-03-11T08:53:11.606Z,70.28
2019-03-11T08:55:54.036Z,81.75
2019-03-11T08:58:28.091Z,86.40
2019-03-11T09:01:12.546Z,88.82
2019-03-11T09:03:47.929Z,88.78
2019-03-11T09:06:20.828Z,58.30
2019-03-11T09:08:54.705Z,78.80
2019-03-11T09:11:28.728Z,92.27
2019-03-11T09:14:02.477Z,84.75
2019-03-11T09:16:35.827Z,89.92
2019-03-11T09:19:09.462Z,89.20
2019-03-11T09:21:46.004Z,82.72
2019-03-11T09:24:21.143Z,75.55
2019-03-11T09:26:56.279Z,75.28
2019-03-11T09:29:30.863Z,82.60
2019-03-11T09:32:05.045Z,89.83
2019-03-11T09:34:38.763Z,70.47
2019-03-11T09:37:12.546Z,83.50
2019-03-11T09:39:45.775Z,74.62
2019-03-11T09:42:22.335Z,68.17
2019-03-11T09:44:55.564Z,77.78
2019-03-11T09:47:32.459Z,70.20
2019-03-11T09:50:08.283Z,73.67
2019-03-11T09:52:41.788Z,70.60
2019-03-11T09:55:24.216Z,85.32
2019-03-11T09:58:01.207Z,90.65
2019-03-11T10:00:39.065Z,71.30
2019-03-11T10:03:12.847Z,80.45
2019-03-11T10:05:46.559Z,85.03
2019-03-11T10:08:28.554Z,87.75
2019-03-11T10:11:10.036Z,75.95
2019-03-11T10:13:47.338Z,67.72
2019-03-11T10:16:22.096Z,83.17
2019-03-11T10:18:56.670Z,77.92
2019-03-11T10:21:43.504Z,83.30
2019-03-11T10:24:19.690Z,40.90
2019-03-11T10:26:53.204Z,88.00
2019-03-11T10:29:26.544Z,83.85
2019-03-11T10:32:00.537Z,89.70
2019-03-11T10:34:34.802Z,94.62
2019-03-11T10:37:09.251Z,95.17
2019-03-11T10:39:43.566Z,85.75
2019-03-11T10:42:18.912Z,98.47
2019-03-11T10:44:52.173Z,93.03
2019-03-11T10:47:25.598Z,69.87
2019-03-11T10:50:02.318Z,100.18
2019-03-11T10:52:36.132Z,94.77
2019-03-11T10:55:19.073Z,93.65
2019-03-11T10:57:56.217Z,90.10
2019-03-11T11:00:32.884Z,93.72
2019-03-11T11:03:06.583Z,92.08
2019-03-11T11:05:39.834Z,85.75
2019-03-11T11:08:16.301Z,55.33
2019-03-11T11:10:53.948Z,96.47
2019-03-11T11:13:27.506Z,81.37
2019-03-11T11:16:02.901Z,85.35
2019-03-11T11:18:37.577Z,78.50
2019-03-11T11:21:10.825Z,73.17
2019-03-11T11:24:24.569Z,91.45
2019-03-11T11:30:46.406Z,108.10
2019-03-11T11:33:22.066Z,111.15
2019-03-11T11:35:56.427Z,106.85
2019-03-11T11:41:33.444Z,65.35
2019-03-11T11:44:06.699Z,73.12
2019-03-11T11:46:40.415Z,96.08
2019-03-11T11:49:13.887Z,124.67
2019-03-11T11:51:47.623Z,92.62
2019-03-11T11:54:20.927Z,88.80
2019-03-11T11:56:54.849Z,87.35
2019-03-11T11:59:28.142Z,73.80
2019-03-11T12:02:04.060Z,77.27
2019-03-11T12:04:50.824Z,82.85
2019-03-11T12:07:19.383Z,89.37
2019-03-11T12:09:52.858Z,87.70
2019-03-11T12:12:39.503Z,90.12
2019-03-11T12:15:13.792Z,89.75
2019-03-11T12:17:47.602Z,85.65
2019-03-11T12:20:31.863Z,102.53
2019-03-11T12:23:05.808Z,74.70
2019-03-11T12:25:39.576Z,112.47
2019-03-11T12:28:18.168Z,60.10
2019-03-11T12:30:51.324Z,48.70
2019-03-11T12:33:33.700Z,58.73
2019-03-11T12:36:08.742Z,108.32
2019-03-11T12:38:42.772Z,73.35
2019-03-11T12:41:17.372Z,95.90
2019-03-11T12:43:53.460Z,85.50
2019-03-11T12:46:26.811Z,100.27
2019-03-11T12:49:00.172Z,89.03
2019-03-11T12:51:33.354Z,83.92
2019-03-11T12:54:07.151Z,96.63
2019-03-11T12:56:41.789Z,96.15
2019-03-11T12:59:15.409Z,52.83
2019-03-11T13:01:48.780Z,85.47
2019-03-11T13:04:23.115Z,90.12
2019-03-11T13:06:56.704Z,54.42
2019-03-11T13:09:30.860Z,70.95
2019-03-11T13:12:05.151Z,79.35
2019-03-11T13:14:39.874Z,82.72
2019-03-11T13:17:13.535Z,92.02
2019-03-11T13:19:48.992Z,78.60
2019-03-11T13:22:21.837Z,78.35
2019-03-11T13:24:56.370Z,77.32
2019-03-11T13:27:29.909Z,87.33
2019-03-11T13:30:04.569Z,62.20
2019-03-11T13:33:13.626Z,82.57
2019-03-11T13:35:56.845Z,78.80
2019-03-11T13:41:22.813Z,71.75
2019-03-11T13:43:56.761Z,64.50
2019-03-11T13:46:30.354Z,94.30
2019-03-11T13:49:07.674Z,99.75
2019-03-11T13:51:43.246Z,100.15
2019-03-11T13:54:17.331Z,103.83
2019-03-11T13:56:50.528Z,98.62
2019-03-11T13:59:24.743Z,105.07
2019-03-11T14:01:58.075Z,96.17
2019-03-11T14:04:41.936Z,99.22
2019-03-11T14:07:17.444Z,103.92
2019-03-11T14:09:52.762Z,97.67
2019-03-11T14:12:27.368Z,100.27
2019-03-11T14:15:01.613Z,95.45
2019-03-11T14:17:42.305Z,102.35
2019-03-11T14:20:24.435Z,105.80
2019-03-11T14:23:00.445Z,94.22
2019-03-11T14:25:34.195Z,100.85
2019-03-11T14:28:08.713Z,100.75
2019-03-11T14:30:42.923Z,100.47
2019-03-11T14:33:17.642Z,105.85
2019-03-11T14:35:55.480Z,90.70
2019-03-11T14:38:33.345Z,112.12
2019-03-11T14:41:07.713Z,98.22
2019-03-11T14:43:41.021Z,96.72
2019-03-11T14:46:14.939Z,104.12
2019-03-11T14:48:54.440Z,110.10
2019-03-11T14:51:35.088Z,112.77
2019-03-11T14:54:08.647Z,112.83
2019-03-11T14:56:42.587Z,107.55
2019-03-11T14:59:18.469Z,94.72
2019-03-11T15:01:52.244Z,105.60
2019-03-11T15:04:25.604Z,88.92
2019-03-11T15:07:00.056Z,102.92
2019-03-11T15:09:33.368Z,45.40
2019-03-11T15:12:10.464Z,102.47
2019-03-11T15:14:43.857Z,112.60
2019-03-11T15:17:17.504Z,120.87
2019-03-11T15:19:50.739Z,105.97
2019-03-11T15:22:24.832Z,117.03
2019-03-11T15:25:33.661Z,115.75
2019-03-11T15:30:26.336Z,118.67
2019-03-11T15:33:00.677Z,121.15
2019-03-11T15:35:39.370Z,121.02
2019-03-11T15:38:12.979Z,123.80
2019-03-11T15:40:53.037Z,125.72
2019-03-11T15:43:33.066Z,123.30
2019-03-11T15:46:07.719Z,118.53
2019-03-11T15:48:41.414Z,122.70
2019-03-11T15:51:17.544Z,123.25
2019-03-11T15:53:52.152Z,122.87
2019-03-11T15:56:29.509Z,125.53
2019-03-11T15:59:03.279Z,127.65
2019-03-11T16:01:36.563Z,126.82
2019-03-11T16:04:12.677Z,126.42
2019-03-11T16:06:45.952Z,131.30
2019-03-11T16:09:21.981Z,130.00
2019-03-11T16:11:55.439Z,135.32
2019-03-11T16:14:29.856Z,134.12
2019-03-11T16:17:10.052Z,141.35
2019-03-11T16:19:45.829Z,140.60
2019-03-11T16:22:23.387Z,140.28
2019-03-11T16:25:04.154Z,134.78
2019-03-11T16:27:38.495Z,138.85
2019-03-11T16:30:27.261Z,135.07
2019-03-11T16:33:02.957Z,145.28
2019-03-11T16:35:38.198Z,145.87
2019-03-11T16:38:13.947Z,142.57
2019-03-11T16:40:47.947Z,144.32
2019-03-11T16:43:21.235Z,145.30
2019-03-11T16:45:55.721Z,143.25
2019-03-11T16:48:33.397Z,152.85
2019-03-11T16:51:10.418Z,155.10
2019-03-11T16:53:43.131Z,162.32
2019-03-11T16:56:18.001Z,151.25
2019-03-11T16:58:51.252Z,146.22
2019-03-11T17:01:25.229Z,157.55
2019-03-11T17:03:58.630Z,155.05
2019-03-11T17:06:34.191Z,151.55
2019-03-11T17:09:08.712Z,152.10
2019-03-11T17:11:43.826Z,152.20
2019-03-11T17:14:17.201Z,155.82
2019-03-11T17:16:50.954Z,159.80
2019-03-11T17:19:24.337Z,159.93
2019-03-11T17:21:59.065Z,159.75
2019-03-11T17:24:32.371Z,150.62
2019-03-11T17:27:12.835Z,151.15
2019-03-11T17:29:43.355Z,153.27
2019-03-11T17:32:17.000Z,147.85
2019-03-11T17:34:50.912Z,148.95
2019-03-11T17:37:28.205Z,155.22
2019-03-11T17:40:01.234Z,153.27
2019-03-11T17:42:36.944Z,148.00
2019-03-11T17:45:12.885Z,153.30
2019-03-11T17:47:47.932Z,155.03
2019-03-11T17:50:25.672Z,154.38
2019-03-11T17:52:59.042Z,153.02
2019-03-11T17:55:32.639Z,144.53
2019-03-11T17:58:06.082Z,146.22
2019-03-11T18:00:54.996Z,146.55
2019-03-11T18:03:24.209Z,151.12
2019-03-11T18:05:57.850Z,146.85
2019-03-11T18:08:31.300Z,148.17
2019-03-11T18:11:04.895Z,151.07
2019-03-11T18:13:38.190Z,144.57
2019-03-11T18:16:12.097Z,143.20
2019-03-11T18:18:45.403Z,135.43
2019-03-11T18:21:19.260Z,137.10
2019-03-11T18:23:52.756Z,142.40
2019-03-11T18:26:26.530Z,139.68
2019-03-11T18:28:59.958Z,159.25
2019-03-11T18:31:34.101Z,142.40
2019-03-11T18:34:07.478Z,163.92
2019-03-11T18:36:40.826Z,146.18
2019-03-11T18:39:14.221Z,152.82
2019-03-11T18:41:48.045Z,146.60
2019-03-11T18:44:21.283Z,154.40
2019-03-11T18:46:55.258Z,139.72
2019-03-11T18:49:28.488Z,150.35
2019-03-11T18:52:02.325Z,136.77
2019-03-11T18:54:36.885Z,140.00
2019-03-11T18:57:10.512Z,138.30
2019-03-11T18:59:44.549Z,138.37
2019-03-11T19:02:18.269Z,148.43
2019-03-11T19:04:51.448Z,135.72
2019-03-11T19:07:24.993Z,138.12
2019-03-11T19:09:58.333Z,142.80
2019-03-11T19:12:33.345Z,137.62
2019-03-11T19:15:07.728Z,132.50
2019-03-11T19:17:41.154Z,137.15
2019-03-11T19:20:21.896Z,136.72
2019-03-11T19:22:55.736Z,138.67
2019-03-11T19:25:29.071Z,131.65
2019-03-11T19:28:02.881Z,134.07
2019-03-11T19:30:36.777Z,131.90
2019-03-11T19:33:11.209Z,134.70
2019-03-11T19:35:45.270Z,132.78
2019-03-11T19:38:19.167Z,125.82
2019-03-11T19:40:52.668Z,129.27
2019-03-11T19:43:26.364Z,126.53
2019-03-11T19:46:00.940Z,131.20
2019-03-11T19:48:35.103Z,129.60
2019-03-11T19:51:08.479Z,133.65
2019-03-11T19:53:42.044Z,131.45
2019-03-11T19:56:15.681Z,136.90
2019-03-11T19:58:49.401Z,131.47
2019-03-11T20:01:23.288Z,128.20
2019-03-11T20:03:56.932Z,130.80
2019-03-11T20:06:30.757Z,130.27
2019-03-11T20:09:05.576Z,131.85
2019-03-11T20:11:40.171Z,133.47
2019-03-11T20:14:14.262Z,130.32
2019-03-11T20:16:47.757Z,129.78
2019-03-11T20:19:21.500Z,131.72
2019-03-11T20:21:54.902Z,130.43
2019-03-11T20:24:31.141Z,131.05
2019-03-11T20:27:05.138Z,130.97
2019-03-11T20:29:40.164Z,131.65
2019-03-11T20:32:13.590Z,130.47
2019-03-11T20:34:47.425Z,131.37
2019-03-11T20:37:21.523Z,135.40
2019-03-11T20:39:55.483Z,132.70
2019-03-11T20:42:28.769Z,126.53
2019-03-11T20:45:03.106Z,131.10
2019-03-11T20:47:37.487Z,127.17
2019-03-11T20:50:13.206Z,130.75
2019-03-11T20:52:46.623Z,135.20
2019-03-11T20:55:22.142Z,132.05
2019-03-11T20:57:55.593Z,129.38
2019-03-11T21:00:30.175Z,133.35
2019-03-11T21:03:03.624Z,137.68
2019-03-11T21:05:42.178Z,127.07
2019-03-11T21:08:15.546Z,129.05
2019-03-11T21:10:49.323Z,127.00
2019-03-11T21:13:23.285Z,130.10
2019-03-11T21:15:57.598Z,141.50
2019-03-11T21:18:31.126Z,137.07
2019-03-11T21:21:05.534Z,129.05
2019-03-11T21:23:39.038Z,128.30
2019-03-11T21:26:13.141Z,134.78
2019-03-11T21:28:46.468Z,130.30
2019-03-11T21:31:20.650Z,135.95
2019-03-11T21:33:58.436Z,136.10
2019-03-11T21:36:29.163Z,133.22
2019-03-11T21:39:03.001Z,136.70
2019-03-11T21:41:39.291Z,131.10
2019-03-11T21:44:12.766Z,139.65
2019-03-11T21:46:46.524Z,135.07
2019-03-11T21:49:21.606Z,134.05
2019-03-11T21:51:55.458Z,129.42
2019-03-11T21:54:29.393Z,132.43
2019-03-11T21:57:03.502Z,130.55
2019-03-11T21:59:37.526Z,126.53
2019-03-11T22:02:11.594Z,125.65
2019-03-11T22:04:45.325Z,124.58
2019-03-11T22:07:19.206Z,122.98
2019-03-11T22:09:52.687Z,118.10
2019-03-11T22:12:26.392Z,120.35
2019-03-11T22:15:00.170Z,120.13
2019-03-11T22:17:35.511Z,129.50
2019-03-11T22:20:11.374Z,122.07
2019-03-11T22:22:44.590Z,121.82
2019-03-11T22:25:19.545Z,125.40
2019-03-11T22:27:53.575Z,125.22
2019-03-11T22:30:27.297Z,125.38
2019-03-11T22:33:00.816Z,122.53
2019-03-11T22:35:34.791Z,122.82
2019-03-11T22:38:08.243Z,125.00
2019-03-11T22:40:42.959Z,126.65
2019-03-11T22:43:16.166Z,122.22
2019-03-11T22:45:49.854Z,125.87
2019-03-11T22:48:23.087Z,125.45
2019-03-11T22:50:57.022Z,123.55
2019-03-11T22:53:32.464Z,128.68
2019-03-11T22:56:06.502Z,126.92
2019-03-11T22:58:40.186Z,125.97
2019-03-11T23:01:14.564Z,121.07
2019-03-11T23:03:50.789Z,125.42
2019-03-11T23:06:24.258Z,123.78
2019-03-11T23:08:57.986Z,124.45
2019-03-11T23:11:32.321Z,124.33
2019-03-11T23:14:05.908Z,122.95
2019-03-11T23:16:40.236Z,122.10
2019-03-11T23:19:13.662Z,127.42
2019-03-11T23:21:47.325Z,124.35
2019-03-11T23:24:20.958Z,127.50
2019-03-11T23:26:54.422Z,129.55
2019-03-11T23:29:28.497Z,131.67
2019-03-11T23:32:03.178Z,123.05
2019-03-11T23:34:37.272Z,125.38
2019-03-11T23:37:11.512Z,133.45
2019-03-11T23:39:44.939Z,133.90
2019-03-11T23:42:18.889Z,135.72
2019-03-11T23:44:52.771Z,128.55
2019-03-11T23:47:26.887Z,128.95
2019-03-11T23:50:00.744Z,121.35
2019-03-11T23:52:35.091Z,119.62
2019-03-11T23:55:10.506Z,120.37
2019-03-11T23:57:45.897Z,124.27
